createdAt,value
2023-04-10T00:00:20.191Z,72.10
2023-04-10T00:02:47.264Z,72.10
2023-04-10T00:05:14.334Z,72.10
2023-04-10T00:07:41.235Z,72.10
2023-04-10T00:10:08.637Z,72.10
2023-04-10T00:12:36.104Z,72.00
2023-04-10T00:15:02.977Z,72.10
2023-04-10T00:17:31.261Z,72.00
2023-04-10T00:19:58.174Z,71.90
2023-04-10T00:22:25.049Z,71.90
2023-04-10T00:24:51.926Z,71.90
2023-04-10T00:27:18.790Z,71.90
2023-04-10T00:29:45.698Z,71.90
2023-04-10T00:32:12.629Z,71.80
2023-04-10T00:34:40.924Z,71.70
2023-04-10T00:37:07.802Z,71.70
2023-04-10T00:39:34.668Z,71.70
2023-04-10T00:42:01.546Z,71.80
2023-04-10T00:44:28.457Z,71.70
2023-04-10T00:46:55.346Z,71.80
2023-04-10T00:49:22.174Z,71.70
2023-04-10T00:51:50.416Z,71.70
2023-04-10T00:54:17.293Z,71.60
2023-04-10T00:56:44.544Z,71.60
2023-04-10T00:59:11.413Z,71.60
2023-04-10T01:01:38.572Z,71.50
2023-04-10T01:04:05.808Z,71.50
2023-04-10T01:06:39.819Z,71.40
2023-04-10T01:09:11.831Z,71.40
2023-04-10T01:11:44.334Z,71.40
2023-04-10T01:14:14.673Z,71.40
2023-04-10T01:16:43.182Z,71.30
2023-04-10T01:19:13.852Z,71.30
2023-04-10T01:21:40.732Z,71.20
2023-04-10T01:24:21.768Z,71.20
2023-04-10T01:26:56.623Z,71.00
2023-04-10T01:29:25.189Z,71.10
2023-04-10T01:31:53.655Z,71.10
2023-04-10T01:34:21.657Z,71.00
2023-04-10T01:36:50.114Z,71.10
2023-04-10T01:39:19.312Z,71.10
2023-04-10T01:41:46.248Z,71.10
2023-04-10T01:44:13.228Z,71.20
2023-04-10T01:46:42.495Z,71.20
2023-04-10T01:49:09.401Z,71.20
2023-04-10T01:51:36.251Z,71.20
2023-04-10T01:54:04.555Z,71.30
2023-04-10T01:56:32.625Z,71.30
2023-04-10T01:58:59.697Z,71.30
2023-04-10T02:01:30.192Z,71.30
2023-04-10T02:03:59.221Z,71.30
2023-04-10T02:06:29.574Z,71.30
2023-04-10T02:08:58.981Z,71.30
2023-04-10T02:11:31.754Z,71.30
2023-04-10T02:13:59.365Z,71.30
2023-04-10T02:16:26.301Z,71.30
2023-04-10T02:18:53.221Z,71.30
2023-04-10T02:21:21.487Z,71.30
2023-04-10T02:23:48.340Z,71.30
2023-04-10T02:26:15.175Z,71.40
2023-04-10T02:28:42.032Z,71.30
2023-04-10T02:31:08.949Z,71.30
2023-04-10T02:33:35.859Z,71.30
2023-04-10T02:36:02.784Z,71.30
2023-04-10T02:38:31.003Z,71.20
2023-04-10T02:40:57.854Z,71.20
2023-04-10T02:43:24.694Z,71.20
2023-04-10T02:45:51.545Z,71.20
2023-04-10T02:48:18.384Z,71.20
2023-04-10T02:50:45.260Z,71.30
2023-04-10T02:53:13.272Z,71.30
2023-04-10T02:55:41.529Z,71.30
2023-04-10T02:58:08.391Z,71.30
2023-04-10T03:00:36.298Z,71.20
2023-04-10T03:03:03.364Z,71.30
2023-04-10T03:05:30.635Z,71.30
2023-04-10T03:07:57.548Z,71.30
2023-04-10T03:10:24.413Z,71.30
2023-04-10T03:12:52.628Z,71.30
2023-04-10T03:15:19.556Z,71.20
2023-04-10T03:17:46.480Z,71.30
2023-04-10T03:20:13.690Z,71.30
2023-04-10T03:22:40.581Z,71.30
2023-04-10T03:25:08.227Z,71.40
2023-04-10T03:27:35.159Z,71.50
2023-04-10T03:30:03.826Z,71.50
2023-04-10T03:32:30.710Z,71.50
2023-04-10T03:34:57.770Z,71.50
2023-04-10T03:37:24.654Z,71.50
2023-04-10T03:39:51.534Z,71.50
2023-04-10T03:42:18.429Z,71.50
2023-04-10T03:44:45.300Z,71.50
2023-04-10T03:47:13.634Z,71.40
2023-04-10T03:49:40.587Z,71.50
2023-04-10T03:52:07.430Z,71.40
2023-04-10T03:54:34.303Z,71.40
2023-04-10T03:57:01.168Z,71.40
2023-04-10T03:59:37.907Z,71.30
2023-04-10T04:02:06.545Z,71.30
2023-04-10T04:04:34.845Z,71.40
2023-04-10T04:07:01.793Z,71.40
2023-04-10T04:09:28.656Z,71.40
2023-04-10T04:11:55.531Z,71.40
2023-04-10T04:14:23.813Z,71.40
2023-04-10T04:16:50.732Z,71.40
2023-04-10T04:19:17.723Z,71.40
2023-04-10T04:21:45.966Z,71.00
2023-04-10T04:24:12.897Z,71.20
2023-04-10T04:26:39.980Z,71.20
2023-04-10T04:29:06.838Z,71.30
2023-04-10T04:31:33.716Z,71.20
2023-04-10T04:34:00.660Z,71.20
2023-04-10T04:36:27.551Z,72.00
2023-04-10T04:38:55.843Z,71.20
2023-04-10T04:41:22.785Z,71.20
2023-04-10T04:43:49.701Z,71.20
2023-04-10T04:46:16.709Z,71.20
2023-04-10T04:48:43.616Z,71.20
2023-04-10T04:51:10.488Z,71.20
2023-04-10T04:53:37.427Z,71.20
2023-04-10T04:56:06.625Z,71.20
2023-04-10T04:58:33.505Z,71.20
2023-04-10T05:01:00.400Z,71.20
2023-04-10T05:03:27.354Z,71.20
2023-04-10T05:05:54.440Z,71.20
2023-04-10T05:08:21.282Z,71.20
2023-04-10T05:10:48.257Z,71.20
2023-04-10T05:13:16.511Z,71.20
2023-04-10T05:15:43.479Z,71.20
2023-04-10T05:18:10.531Z,71.20
2023-04-10T05:20:37.684Z,71.20
2023-04-10T05:23:04.579Z,71.10
2023-04-10T05:25:31.476Z,71.10
2023-04-10T05:27:58.360Z,71.10
2023-04-10T05:30:26.609Z,71.10
2023-04-10T05:32:53.471Z,71.10
2023-04-10T05:35:20.361Z,71.10
2023-04-10T05:37:47.244Z,71.10
2023-04-10T05:40:14.111Z,71.10
2023-04-10T05:42:40.992Z,71.00
2023-04-10T05:45:08.365Z,71.00
2023-04-10T05:47:36.659Z,71.00
2023-04-10T05:50:03.837Z,71.10
2023-04-10T05:52:30.684Z,71.10
2023-04-10T05:54:57.592Z,71.00
2023-04-10T05:57:25.423Z,71.00
2023-04-10T05:59:52.286Z,70.90
2023-04-10T06:02:19.410Z,70.90
2023-04-10T06:04:47.841Z,70.90
2023-04-10T06:07:14.829Z,70.80
2023-04-10T06:09:41.716Z,70.80
2023-04-10T06:12:08.577Z,70.80
2023-04-10T06:14:35.424Z,70.80
2023-04-10T06:17:02.263Z,70.80
2023-04-10T06:19:29.089Z,70.70
2023-04-10T06:21:57.361Z,70.80
2023-04-10T06:24:24.365Z,70.70
2023-04-10T06:26:51.293Z,70.70
2023-04-10T06:29:19.150Z,70.70
2023-04-10T06:31:46.077Z,70.70
2023-04-10T06:34:13.026Z,70.70
2023-04-10T06:36:39.887Z,70.70
2023-04-10T06:39:08.125Z,70.60
2023-04-10T06:41:34.992Z,70.60
2023-04-10T06:44:03.441Z,70.60
2023-04-10T06:46:30.637Z,70.60
2023-04-10T06:48:57.583Z,70.60
2023-04-10T06:51:24.529Z,70.70
2023-04-10T06:53:51.388Z,70.70
2023-04-10T06:56:19.933Z,70.90
2023-04-10T06:58:46.812Z,70.90
2023-04-10T07:01:13.842Z,71.10
2023-04-10T07:03:40.825Z,71.10
2023-04-10T07:06:08.087Z,71.20
2023-04-10T07:08:34.982Z,71.10
2023-04-10T07:11:01.822Z,71.10
2023-04-10T07:13:30.053Z,71.10
2023-04-10T07:15:57.014Z,71.10
2023-04-10T07:18:23.967Z,71.10
2023-04-10T07:20:51.416Z,71.10
2023-04-10T07:23:18.333Z,71.10
2023-04-10T07:25:45.172Z,71.10
2023-04-10T07:28:12.095Z,71.10
2023-04-10T07:30:40.464Z,71.10
2023-04-10T07:33:07.429Z,71.10
2023-04-10T07:35:34.562Z,71.10
2023-04-10T07:38:01.861Z,71.20
2023-04-10T07:40:28.764Z,71.20
2023-04-10T07:42:55.644Z,71.20
2023-04-10T07:45:22.523Z,71.20
2023-04-10T07:47:50.873Z,71.20
2023-04-10T07:50:17.862Z,71.20
2023-04-10T07:52:44.708Z,71.30
2023-04-10T07:55:11.589Z,71.20
2023-04-10T07:57:39.351Z,71.20
2023-04-10T08:00:08.641Z,71.30
2023-04-10T08:02:35.691Z,71.30
2023-04-10T08:05:04.382Z,71.30
2023-04-10T08:07:31.348Z,71.30
2023-04-10T08:09:58.229Z,71.30
2023-04-10T08:12:25.084Z,71.30
2023-04-10T08:14:51.988Z,71.30
2023-04-10T08:17:18.920Z,71.30
2023-04-10T08:19:45.799Z,71.30
2023-04-10T08:22:14.059Z,71.30
2023-04-10T08:24:40.910Z,71.30
2023-04-10T08:27:07.816Z,71.30
2023-04-10T08:29:34.778Z,71.30
2023-04-10T08:32:01.705Z,71.70
2023-04-10T08:34:28.652Z,71.30
2023-04-10T08:36:57.090Z,71.30
2023-04-10T08:39:25.399Z,71.30
2023-04-10T08:41:52.266Z,71.30
2023-04-10T08:44:19.125Z,71.30
2023-04-10T08:46:46.110Z,71.20
2023-04-10T08:49:17.252Z,71.30
2023-04-10T08:51:49.148Z,71.30
2023-04-10T08:54:20.506Z,71.20
2023-04-10T08:56:50.676Z,71.20
2023-04-10T08:59:17.595Z,71.20
2023-04-10T09:01:45.941Z,72.00
2023-04-10T09:04:13.048Z,71.20
2023-04-10T09:06:40.005Z,71.20
2023-04-10T09:09:06.875Z,71.20
2023-04-10T09:11:59.440Z,71.20
2023-04-10T09:14:26.944Z,71.00
2023-04-10T09:16:53.949Z,71.30
2023-04-10T09:19:29.964Z,71.20
2023-04-10T09:21:56.982Z,71.10
2023-04-10T09:24:23.885Z,71.20
2023-04-10T09:26:50.728Z,71.20
2023-04-10T09:29:19.122Z,71.20
2023-04-10T09:31:46.302Z,71.20
2023-04-10T09:34:16.045Z,71.20
2023-04-10T09:36:43.694Z,72.00
2023-04-10T09:39:11.137Z,71.10
2023-04-10T09:41:55.774Z,71.20
2023-04-10T09:44:30.323Z,70.90
2023-04-10T09:46:57.279Z,71.10
2023-04-10T09:49:24.157Z,71.10
2023-04-10T09:51:51.002Z,71.00
2023-04-10T09:54:17.842Z,70.90
2023-04-10T09:56:45.456Z,71.70
2023-04-10T09:59:12.325Z,70.90
2023-04-10T10:01:40.684Z,70.90
2023-04-10T10:04:07.650Z,71.00
2023-04-10T10:06:34.529Z,71.00
2023-04-10T10:09:02.642Z,71.00
2023-04-10T10:11:29.974Z,71.00
2023-04-10T10:13:56.822Z,70.90
2023-04-10T10:16:27.561Z,71.10
2023-04-10T10:18:59.644Z,70.90
2023-04-10T10:21:26.757Z,71.10
2023-04-10T10:23:53.733Z,71.20
2023-04-10T10:26:20.662Z,71.30
2023-04-10T10:28:47.611Z,71.30
2023-04-10T10:31:14.536Z,71.40
2023-04-10T10:33:41.466Z,71.60
2023-04-10T10:36:09.834Z,72.40
2023-04-10T10:38:36.923Z,71.50
2023-04-10T10:41:09.384Z,70.70
2023-04-10T10:43:37.930Z,71.40
2023-04-10T10:46:07.113Z,71.50
2023-04-10T10:48:34.065Z,71.40
2023-04-10T10:51:01.052Z,71.50
2023-04-10T10:53:36.799Z,71.40
2023-04-10T10:56:34.984Z,71.30
2023-04-10T10:59:01.896Z,71.30
2023-04-10T11:01:28.952Z,71.50
2023-04-10T11:03:56.063Z,71.40
2023-04-10T11:06:48.059Z,71.40
2023-04-10T11:09:49.793Z,71.50
2023-04-10T11:12:16.769Z,71.10
2023-04-10T11:14:43.679Z,71.30
2023-04-10T11:17:10.837Z,71.30
2023-04-10T11:20:05.127Z,71.10
2023-04-10T11:22:32.019Z,70.80
2023-04-10T11:25:00.784Z,71.00
2023-04-10T11:27:46.675Z,70.90
2023-04-10T11:30:29.068Z,70.60
2023-04-10T11:32:55.983Z,70.60
2023-04-10T11:35:22.942Z,70.70
2023-04-10T11:37:49.815Z,70.60
2023-04-10T11:40:18.180Z,70.80
2023-04-10T11:42:45.073Z,70.90
2023-04-10T11:45:25.632Z,71.00
2023-04-10T11:47:52.650Z,71.10
2023-04-10T11:50:19.883Z,71.30
2023-04-10T11:52:46.890Z,71.30
2023-04-10T11:55:13.787Z,71.40
2023-04-10T11:57:42.050Z,71.40
2023-04-10T12:00:09.824Z,71.40
2023-04-10T12:02:49.636Z,71.40
2023-04-10T12:05:16.782Z,71.40
2023-04-10T12:07:43.661Z,71.50
2023-04-10T12:10:10.572Z,71.50
2023-04-10T12:12:37.494Z,71.30
2023-04-10T12:15:21.601Z,71.10
2023-04-10T12:17:48.781Z,71.10
2023-04-10T12:20:16.072Z,71.10
2023-04-10T12:22:42.941Z,71.00
2023-04-10T12:25:12.064Z,71.00
2023-04-10T12:27:38.948Z,71.10
2023-04-10T12:30:09.488Z,71.20
2023-04-10T12:32:36.423Z,71.10
2023-04-10T12:35:03.400Z,71.20
2023-04-10T12:37:48.638Z,71.20
2023-04-10T12:40:15.614Z,71.00
2023-04-10T12:42:42.577Z,71.30
2023-04-10T12:45:11.074Z,71.30
2023-04-10T12:47:44.012Z,71.30
2023-04-10T12:50:11.686Z,71.30
2023-04-10T12:52:40.010Z,71.30
2023-04-10T12:55:14.163Z,71.20
2023-04-10T12:57:41.163Z,70.90
2023-04-10T13:00:10.545Z,71.00
2023-04-10T13:02:37.773Z,70.80
2023-04-10T13:05:05.598Z,70.80
2023-04-10T13:07:32.511Z,70.60
2023-04-10T13:09:59.476Z,70.70
2023-04-10T13:12:26.390Z,70.50
2023-04-10T13:14:53.710Z,70.40
2023-04-10T13:17:22.038Z,70.40
2023-04-10T13:19:48.924Z,70.20
2023-04-10T13:22:15.798Z,70.10
2023-04-10T13:24:42.701Z,70.00
2023-04-10T13:27:09.583Z,70.00
2023-04-10T13:29:36.479Z,69.80
2023-04-10T13:32:03.370Z,69.70
2023-04-10T13:34:31.601Z,69.70
2023-04-10T13:36:58.519Z,69.50
2023-04-10T13:39:26.329Z,69.50
2023-04-10T13:41:53.226Z,69.30
2023-04-10T13:44:20.087Z,69.10
2023-04-10T13:46:47.004Z,68.90
2023-04-10T13:49:13.955Z,68.80
2023-04-10T13:51:42.178Z,68.30
2023-04-10T13:54:09.026Z,68.10
2023-04-10T13:56:35.921Z,68.10
2023-04-10T13:59:02.788Z,67.90
2023-04-10T14:01:29.719Z,67.50
2023-04-10T14:03:56.871Z,67.60
2023-04-10T14:06:23.946Z,67.40
2023-04-10T14:08:52.433Z,67.30
2023-04-10T14:11:19.997Z,67.30
2023-04-10T14:13:47.025Z,66.90
2023-04-10T14:16:13.925Z,66.70
2023-04-10T14:18:40.794Z,66.90
2023-04-10T14:21:07.778Z,67.20
2023-04-10T14:23:34.637Z,67.50
2023-04-10T14:26:02.850Z,67.80
2023-04-10T14:28:29.752Z,68.10
2023-04-10T14:30:56.701Z,68.20
2023-04-10T14:33:23.727Z,68.40
2023-04-10T14:35:50.613Z,68.50
2023-04-10T14:38:17.511Z,68.50
2023-04-10T14:40:44.462Z,68.50
2023-04-10T14:43:12.666Z,68.30
2023-04-10T14:45:39.527Z,68.10
2023-04-10T14:48:06.520Z,67.90
2023-04-10T14:50:33.454Z,67.80
2023-04-10T14:53:00.353Z,67.70
2023-04-10T14:55:28.488Z,67.60
2023-04-10T14:57:56.615Z,67.50
2023-04-10T15:00:26.680Z,67.40
2023-04-10T15:02:53.968Z,67.20
2023-04-10T15:05:22.402Z,67.20
2023-04-10T15:07:49.279Z,67.00
2023-04-10T15:10:16.128Z,67.00
2023-04-10T15:12:42.993Z,66.80
2023-04-10T15:15:10.750Z,67.00
2023-04-10T15:17:39.132Z,66.80
2023-04-10T15:20:06.768Z,66.70
2023-04-10T15:22:33.709Z,66.60
2023-04-10T15:25:00.711Z,66.60
2023-04-10T15:27:27.619Z,66.60
2023-04-10T15:29:54.497Z,66.40
2023-04-10T15:32:21.415Z,67.30
2023-04-10T15:34:49.703Z,66.20
2023-04-10T15:37:16.555Z,66.30
2023-04-10T15:39:43.440Z,66.10
2023-04-10T15:42:10.543Z,66.20
2023-04-10T15:44:37.395Z,66.40
2023-04-10T15:47:04.295Z,65.70
2023-04-10T15:49:37.577Z,65.90
2023-04-10T15:52:07.160Z,65.90
2023-04-10T15:54:34.233Z,65.60
2023-04-10T15:57:01.186Z,65.30
2023-04-10T15:59:28.087Z,65.00
2023-04-10T16:01:55.031Z,64.60
2023-04-10T16:04:22.039Z,64.50
2023-04-10T16:06:48.965Z,64.30
2023-04-10T16:09:26.126Z,64.30
2023-04-10T16:11:53.552Z,64.30
2023-04-10T16:14:20.500Z,64.80
2023-04-10T16:16:47.383Z,64.90
2023-04-10T16:19:14.335Z,65.10
2023-04-10T16:21:41.246Z,65.30
2023-04-10T16:24:08.262Z,65.40
2023-04-10T16:26:36.499Z,65.60
2023-04-10T16:29:03.375Z,65.80
2023-04-10T16:31:30.290Z,65.80
2023-04-10T16:33:57.216Z,65.60
2023-04-10T16:36:24.076Z,65.50
2023-04-10T16:38:50.937Z,65.60
2023-04-10T16:41:17.851Z,65.70
2023-04-10T16:43:46.154Z,65.90
2023-04-10T16:46:13.106Z,66.20
2023-04-10T16:48:40.054Z,66.50
2023-04-10T16:51:08.280Z,66.70
2023-04-10T16:53:35.421Z,66.90
2023-04-10T16:56:04.516Z,67.10
2023-04-10T16:58:32.832Z,67.20
2023-04-10T17:01:01.317Z,67.30
2023-04-10T17:03:28.248Z,67.40
2023-04-10T17:05:55.101Z,67.30
2023-04-10T17:08:21.947Z,67.30
2023-04-10T17:10:48.851Z,67.40
2023-04-10T17:13:15.714Z,67.40
2023-04-10T17:15:42.585Z,67.50
2023-04-10T17:18:10.879Z,67.40
2023-04-10T17:20:37.930Z,67.20
2023-04-10T17:23:04.797Z,66.90
2023-04-10T17:25:31.760Z,66.70
2023-04-10T17:27:58.701Z,66.50
2023-04-10T17:30:25.700Z,66.40
2023-04-10T17:32:52.921Z,66.30
2023-04-10T17:35:21.165Z,66.30
2023-04-10T17:37:48.040Z,66.20
2023-04-10T17:40:14.993Z,66.10
2023-04-10T17:42:41.879Z,66.00
2023-04-10T17:45:09.441Z,66.00
2023-04-10T17:47:36.405Z,66.00
2023-04-10T17:50:03.400Z,65.80
2023-04-10T17:52:31.638Z,65.80
2023-04-10T17:54:59.650Z,65.70
2023-04-10T17:57:26.507Z,65.50
2023-04-10T17:59:53.324Z,65.40
2023-04-10T18:02:20.208Z,65.10
2023-04-10T18:04:47.086Z,65.10
2023-04-10T18:07:13.958Z,65.10
2023-04-10T18:09:42.197Z,65.20
2023-04-10T18:12:09.386Z,65.10
2023-04-10T18:14:36.324Z,65.10
2023-04-10T18:17:03.208Z,65.20
2023-04-10T18:19:30.098Z,65.30
2023-04-10T18:21:56.955Z,65.40
2023-04-10T18:24:23.795Z,65.60
2023-04-10T18:26:52.077Z,65.70
2023-04-10T18:29:18.944Z,65.70
2023-04-10T18:31:45.810Z,65.70
2023-04-10T18:34:12.818Z,65.60
2023-04-10T18:36:40.072Z,65.60
2023-04-10T18:39:06.980Z,65.50
2023-04-10T18:41:33.922Z,65.40
2023-04-10T18:44:05.338Z,65.30
2023-04-10T18:46:33.082Z,65.20
2023-04-10T18:49:00.140Z,65.10
2023-04-10T18:51:26.990Z,65.00
2023-04-10T18:53:55.076Z,65.00
2023-04-10T18:56:22.300Z,65.00
2023-04-10T18:58:50.193Z,64.90
2023-04-10T19:01:18.682Z,64.80
2023-04-10T19:03:46.259Z,64.80
2023-04-10T19:06:14.288Z,64.80
2023-04-10T19:08:41.235Z,64.70
2023-04-10T19:11:08.117Z,64.60
2023-04-10T19:13:35.022Z,64.70
2023-04-10T19:16:03.592Z,64.60
2023-04-10T19:18:31.821Z,64.80
2023-04-10T19:20:59.208Z,64.80
2023-04-10T19:23:26.497Z,65.00
2023-04-10T19:25:53.452Z,65.00
2023-04-10T19:28:20.369Z,65.00
2023-04-10T19:30:47.257Z,65.00
2023-04-10T19:33:14.161Z,65.10
2023-04-10T19:35:42.422Z,65.20
2023-04-10T19:38:09.277Z,65.20
2023-04-10T19:40:36.143Z,65.30
2023-04-10T19:43:03.055Z,65.30
2023-04-10T19:45:29.880Z,65.20
2023-04-10T19:47:57.052Z,65.20
2023-04-10T19:50:24.141Z,64.90
2023-04-10T19:52:53.038Z,64.80
2023-04-10T19:55:20.115Z,64.70
2023-04-10T19:57:47.363Z,64.70
2023-04-10T20:00:14.608Z,64.90
2023-04-10T20:02:41.832Z,65.50
2023-04-10T20:05:09.410Z,64.70
2023-04-10T20:07:36.376Z,64.60
2023-04-10T20:10:05.268Z,64.70
2023-04-10T20:12:32.487Z,64.60
2023-04-10T20:14:59.529Z,64.70
2023-04-10T20:17:26.645Z,64.60
2023-04-10T20:19:53.550Z,64.60
2023-04-10T20:22:20.441Z,64.60
2023-04-10T20:24:47.287Z,64.60
2023-04-10T20:27:16.079Z,64.60
2023-04-10T20:29:42.978Z,64.60
2023-04-10T20:32:09.843Z,64.60
2023-04-10T20:34:36.799Z,64.70
2023-04-10T20:37:03.782Z,64.80
2023-04-10T20:39:30.764Z,64.70
2023-04-10T20:41:57.876Z,64.80
2023-04-10T20:44:26.165Z,64.70
2023-04-10T20:46:54.102Z,64.60
2023-04-10T20:49:22.407Z,64.60
2023-04-10T20:51:49.276Z,64.50
2023-04-10T20:54:16.142Z,64.40
2023-04-10T20:56:43.990Z,64.50
2023-04-10T20:59:11.230Z,64.50
2023-04-10T21:01:39.865Z,64.60
2023-04-10T21:04:06.968Z,64.70
2023-04-10T21:06:33.834Z,64.80
2023-04-10T21:09:01.105Z,64.90
2023-04-10T21:11:28.085Z,65.00
2023-04-10T21:13:54.998Z,65.00
2023-04-10T21:16:21.891Z,64.90
2023-04-10T21:18:56.099Z,65.00
2023-04-10T21:21:23.121Z,65.70
2023-04-10T21:23:49.981Z,65.00
2023-04-10T21:26:16.826Z,64.90
2023-04-10T21:28:43.685Z,64.80
2023-04-10T21:31:10.528Z,64.60
2023-04-10T21:33:37.597Z,64.50
2023-04-10T21:36:06.687Z,64.60
2023-04-10T21:38:33.586Z,64.50
2023-04-10T21:41:00.464Z,64.50
2023-04-10T21:43:27.324Z,64.50
2023-04-10T21:45:54.364Z,64.50
2023-04-10T21:48:21.335Z,64.50
2023-04-10T21:50:49.205Z,64.40
2023-04-10T21:53:17.522Z,64.40
2023-04-10T21:55:44.570Z,64.50
2023-04-10T21:58:11.454Z,64.60
2023-04-10T22:00:38.396Z,64.60
2023-04-10T22:03:05.391Z,64.60
2023-04-10T22:05:32.314Z,64.60
2023-04-10T22:07:59.462Z,64.60
2023-04-10T22:10:27.796Z,64.70
2023-04-10T22:12:54.690Z,64.70
2023-04-10T22:15:21.594Z,64.70
2023-04-10T22:17:48.620Z,64.80
2023-04-10T22:20:15.984Z,64.80
2023-04-10T22:22:42.835Z,64.90
2023-04-10T22:25:09.858Z,64.80
2023-04-10T22:27:38.129Z,64.70
2023-04-10T22:30:06.107Z,64.70
2023-04-10T22:32:33.190Z,64.70
2023-04-10T22:35:00.183Z,64.80
2023-04-10T22:37:27.192Z,64.70
2023-04-10T22:39:54.214Z,64.70
2023-04-10T22:42:21.057Z,64.70
2023-04-10T22:44:49.305Z,64.70
2023-04-10T22:47:16.155Z,64.50
2023-04-10T22:49:43.060Z,64.50
2023-04-10T22:52:09.982Z,64.50
2023-04-10T22:54:36.874Z,64.50
2023-04-10T22:57:03.821Z,64.50
2023-04-10T22:59:31.183Z,64.40
2023-04-10T23:01:59.522Z,64.40
2023-04-10T23:04:26.537Z,64.30
2023-04-10T23:06:53.430Z,64.30
2023-04-10T23:09:20.328Z,64.30
2023-04-10T23:11:47.180Z,64.20
2023-04-10T23:14:14.061Z,64.20
2023-04-10T23:16:40.924Z,64.20
2023-04-10T23:19:09.205Z,64.10
2023-04-10T23:21:36.085Z,64.00
2023-04-10T23:24:03.070Z,64.00
2023-04-10T23:26:30.283Z,64.00
2023-04-10T23:28:57.157Z,64.10
2023-04-10T23:31:24.065Z,64.00
2023-04-10T23:33:51.004Z,64.00
2023-04-10T23:36:19.283Z,64.90
2023-04-10T23:38:46.150Z,64.00
2023-04-10T23:41:13.059Z,64.10
2023-04-10T23:43:39.913Z,64.10
2023-04-10T23:46:07.300Z,64.20
2023-04-10T23:48:34.268Z,64.20
2023-04-10T23:51:04.732Z,64.30
2023-04-10T23:53:33.047Z,64.30
2023-04-10T23:55:59.961Z,64.40
2023-04-10T23:58:26.840Z,64.40
